Ελευσίνα, Ελλάδα

12:06 PM EEST on Σεπτέμβριος 02, 2014 (GMT +0300)
Elefsis Air Base | Change Station
CLOSE
Current Station
Airport
Location: Elefsis,
Elevation: 102 ft
Nearby Weather Stations
Active Advisory: Thunderstorms

Elev 102 ft 38.06 °N, 23.56 °E | Updated 16 minutes ago

Scattered Clouds
Διάσπαρτα Νέφη
82 ° F
Feels Like 85 ° F
N
8
Ανεμος Μεταβλητός Ανεμος from ΝΝΑ

Σήμερα
High -- | Low -- ° F
--% Chance of Precip.
Yesterday
High -- | Low -- ° F
Precip. -- in
6:56 AM 7:54 PM
Μηνίσκος, 49% visible
Ατμοσφαιρική Πίεση 29.68 in
Ορατότητα 6.2 Μίλια
Σύννεφα Διάσπαρτα Νέφη 2500 ft
Διάσπαρτα Νέφη 7000 ft
Δείκτης Δυσφορίας 85 ° F
Σημείο Δρόσου 66 ° F
Υγρασία 58%
Rainfall 0.00 in
Snow Depth Not available.
Υπεριώδης ακτινοβολία (UV) 6 out of 12
Pollen Not available.
Air Quality Not available.
Flu Activity Not available.
METAR LGEL 020850Z 16007KT 9999 SCT025 SCT070 28/19 Q1005 NOSIG

More Conditions Fewer Conditions

Ατμοσφαιρική Πίεση 29.68 in
Ορατότητα 6.2 Μίλια
Σύννεφα Διάσπαρτα Νέφη 2500 ft
Διάσπαρτα Νέφη 7000 ft
Δείκτης Δυσφορίας 85 ° F
Σημείο Δρόσου 66 ° F
Υγρασία 58%
Rainfall 0.00 in
Snow Depth Not available.
Υπεριώδης ακτινοβολία (UV) 6 out of 12
Pollen Not available.
Air Quality Not available.
Flu Activity Not available.
METAR LGEL 020850Z 16007KT 9999 SCT025 SCT070 28/19 Q1005 NOSIG

More Conditions Fewer Conditions

10-Day Weather Forecast

Almanac

Αστρονομία

Sep. 02, 2014 Rise Set
Actual Time 6:56 AM EEST 7:54 PM EEST
Civil Twilight 6:29 AM EEST 8:21 PM EEST
Nautical Twilight 5:57 AM EEST 8:53 PM EEST
Astronomical Twilight 5:23 AM EEST 9:26 PM EEST
Moon 2:15 PM EEST Χωρίς Δύση Σελήνης
Length Of Visible Light 13h 51m
Διάρκεια ημέρας
12h 58m
Tomorrow will be 2m 22s shorter.
Μηνίσκος, 49% of the Moon is Illuminated
Σήμερα
Μηνίσκος
Sep 2
Πρώτο τέταρτο
Sep 8
Πανσέληνος
Sep 15
Τελευταίο τέταρτο
Sep 24
New

Yesterday's Extremes

Country Highs Country Lows

Community

WunderPhotos

Upload Photos

1,749,587 photos uploaded!

WunderBlogs® & News

Nearby

Snow Depth

Not available.

Earthquake Activity

City Distance Mag. Time & Date
No recent earthquake activity has been reported nearby.
Minimum magnitude displayed is 2.5.

Coastal Water Temperatures

Τοποθεσία Θερμοκρασία
No Stations Reporting

Nearby Weather Stations